首页
METAR-TAF:

METAR-TAF

机场 :

大加那利机场

大加那利岛, 西班牙

纬度: 27-56N, 经度: 015-23W, 海拔: 23米

当前天气观测

该预报发布于14分钟前的14:30 UTC
风速17节,风向
温度 25°C
湿度 79%
气压 1017 hPa
能见度10公里或以上
少量云层高于3000英尺
散云层高于4000英尺

METAR: GCLP 231430Z 17017KT 9999 FEW030 SCT040 25/21 Q1017 NOSIG

时间: 15:44 (14:44 UTC)

预报

该预报发布于44分钟前的14:00 UTC
预报有效从23日的 15点(UTC)到 24日的 15点(UTC)
风速14节,风向南转南东
能见度10公里或以上
少量云层高于3000英尺
散云层高于4000英尺
几率 30% :
短暂存在
从 23日的 15点(UTC)到 23日的 19点(UTC)
能見度: 4900
成为
从 23日的 17点(UTC)到 23日的 20点(UTC)
风速4节,风向多变

TAF: GCLP 231400Z 2315/2415 16014KT 9999 FEW030 SCT040 TX25/2315Z TN19/2405Z PROB30 TEMPO 2315/2319 4900 RA BECMG 2317/2320 VRB04KT

超过4000个机场的气象观测和天气预报(METAR&TAF报告)。

可查询的气象台以黄色和红色小点在地图上表示。

将鼠标移到小点上方,可查看气象台名称。

然后点击查看天气观测和预报。

如需切换地图:点击带黑十字的绿色按钮放大地图;点击带横线的绿色按钮缩小地图;或者点击绿色箭头查看邻近地区的地图。


METAR-TAF: